createdAt,value
2019-05-25T00:00:55.372Z,58.10
2019-05-25T00:03:24.231Z,58.10
2019-05-25T00:05:53.031Z,58.00
2019-05-25T00:08:21.799Z,58.00
2019-05-25T00:10:50.788Z,58.10
2019-05-25T00:13:19.546Z,58.10
2019-05-25T00:15:48.293Z,58.10
2019-05-25T00:18:17.117Z,58.00
2019-05-25T00:20:46.008Z,58.20
2019-05-25T00:23:14.767Z,58.20
2019-05-25T00:25:43.540Z,58.20
2019-05-25T00:28:12.398Z,58.10
2019-05-25T00:30:41.295Z,58.20
2019-05-25T00:33:10.064Z,58.10
2019-05-25T00:35:38.808Z,58.10
2019-05-25T00:38:07.593Z,58.10
2019-05-25T00:40:36.422Z,58.20
2019-05-25T00:43:05.265Z,58.00
2019-05-25T00:45:34.015Z,57.90
2019-05-25T00:48:02.855Z,57.80
2019-05-25T00:50:31.624Z,57.80
2019-05-25T00:53:00.361Z,57.80
2019-05-25T00:55:29.184Z,57.80
2019-05-25T00:57:58.039Z,57.80
2019-05-25T01:00:26.798Z,57.80
2019-05-25T01:02:55.565Z,57.80
2019-05-25T01:05:24.604Z,57.70
2019-05-25T01:07:53.356Z,57.70
2019-05-25T01:10:22.122Z,57.80
2019-05-25T01:12:50.947Z,57.90
2019-05-25T01:15:19.706Z,58.00
2019-05-25T01:17:48.489Z,57.80
2019-05-25T01:20:17.251Z,57.60
2019-05-25T01:22:46.238Z,57.60
2019-05-25T01:25:16.121Z,57.60
2019-05-25T01:27:44.949Z,57.60
2019-05-25T01:30:13.701Z,57.60
2019-05-25T01:32:42.429Z,57.70
2019-05-25T01:35:11.196Z,57.70
2019-05-25T01:37:39.974Z,57.70
2019-05-25T01:40:08.735Z,57.70
2019-05-25T01:42:37.577Z,57.60
2019-05-25T01:45:06.343Z,57.70
2019-05-25T01:47:35.166Z,57.80
2019-05-25T01:50:04.230Z,57.80
2019-05-25T01:52:33.010Z,57.70
2019-05-25T01:55:01.755Z,57.50
2019-05-25T01:57:30.509Z,57.30
2019-05-25T01:59:59.266Z,57.40
2019-05-25T02:02:28.010Z,57.30
2019-05-25T02:04:56.758Z,57.40
2019-05-25T02:07:25.548Z,57.40
2019-05-25T02:09:54.312Z,57.40
2019-05-25T02:12:23.083Z,57.40
2019-05-25T02:14:51.853Z,57.70
2019-05-25T02:17:20.628Z,57.40
2019-05-25T02:19:49.391Z,57.40
2019-05-25T02:22:18.121Z,57.50
2019-05-25T02:24:46.858Z,58.00
2019-05-25T02:27:15.813Z,57.50
2019-05-25T02:29:44.568Z,57.40
2019-05-25T02:32:13.319Z,57.10
2019-05-25T02:34:42.085Z,57.20
2019-05-25T02:37:10.844Z,57.10
2019-05-25T02:39:39.615Z,57.20
2019-05-25T02:42:08.428Z,57.20
2019-05-25T02:44:37.229Z,57.10
2019-05-25T02:47:06.025Z,57.10
2019-05-25T02:49:34.800Z,57.10
2019-05-25T02:52:03.583Z,57.00
2019-05-25T02:54:32.348Z,57.10
2019-05-25T02:57:01.102Z,57.30
2019-05-25T02:59:29.873Z,57.40
2019-05-25T03:01:58.770Z,57.40
2019-05-25T03:04:27.594Z,57.30
2019-05-25T03:06:56.371Z,57.30
2019-05-25T03:09:25.216Z,57.40
2019-05-25T03:11:54.225Z,57.40
2019-05-25T03:14:22.951Z,57.40
2019-05-25T03:16:51.717Z,57.40
2019-05-25T03:19:20.457Z,57.30
2019-05-25T03:21:49.348Z,56.90
2019-05-25T03:24:18.187Z,56.90
2019-05-25T03:26:46.951Z,56.70
2019-05-25T03:29:15.684Z,56.80
2019-05-25T03:31:44.439Z,56.90
2019-05-25T03:34:13.207Z,56.80
2019-05-25T03:36:41.948Z,56.80
2019-05-25T03:39:14.701Z,56.80
2019-05-25T03:41:43.447Z,56.80
2019-05-25T03:44:12.178Z,57.00
2019-05-25T03:46:41.012Z,56.90
2019-05-25T03:49:09.786Z,57.00
2019-05-25T03:51:38.510Z,56.90
2019-05-25T03:54:07.375Z,56.90
2019-05-25T03:56:36.139Z,56.90
2019-05-25T03:59:04.951Z,56.90
2019-05-25T04:01:33.705Z,56.90
2019-05-25T04:04:02.459Z,56.90
2019-05-25T04:06:31.213Z,56.90
2019-05-25T04:08:59.953Z,56.90
2019-05-25T04:11:28.741Z,56.60
2019-05-25T04:13:57.483Z,56.40
2019-05-25T04:16:26.280Z,56.10
2019-05-25T04:18:55.891Z,56.00
2019-05-25T04:21:24.659Z,55.90
2019-05-25T04:23:53.459Z,55.90
2019-05-25T04:26:23.045Z,56.20
2019-05-25T04:28:51.999Z,56.30
2019-05-25T04:31:20.818Z,56.40
2019-05-25T04:33:49.670Z,56.40
2019-05-25T04:36:18.398Z,56.50
2019-05-25T04:38:47.199Z,56.50
2019-05-25T04:41:16.021Z,56.50
2019-05-25T04:43:44.806Z,56.50
2019-05-25T04:46:13.549Z,56.60
2019-05-25T04:48:42.279Z,56.50
2019-05-25T04:51:11.049Z,56.60
2019-05-25T04:53:39.844Z,56.60
2019-05-25T04:56:08.608Z,56.60
2019-05-25T04:58:37.375Z,56.50
2019-05-25T05:01:06.216Z,56.10
2019-05-25T05:03:35.063Z,56.00
2019-05-25T05:06:03.831Z,56.00
2019-05-25T05:08:35.618Z,56.10
2019-05-25T05:11:03.099Z,56.10
2019-05-25T05:13:31.840Z,56.00
2019-05-25T05:16:00.589Z,55.90
2019-05-25T05:18:29.407Z,56.10
2019-05-25T05:20:58.150Z,56.10
2019-05-25T05:23:26.914Z,56.20
2019-05-25T05:25:55.736Z,56.10
2019-05-25T05:28:24.501Z,56.30
2019-05-25T05:30:53.265Z,56.40
2019-05-25T05:33:22.029Z,56.40
2019-05-25T05:35:50.809Z,56.40
2019-05-25T05:38:19.591Z,56.40
2019-05-25T05:40:48.343Z,56.40
2019-05-25T05:43:17.117Z,56.40
2019-05-25T05:45:45.943Z,56.50
2019-05-25T05:48:14.688Z,56.60
2019-05-25T05:50:43.473Z,56.30
2019-05-25T05:53:12.227Z,56.10
2019-05-25T05:55:41.003Z,55.80
2019-05-25T05:58:09.837Z,55.80
2019-05-25T06:00:38.656Z,55.60
2019-05-25T06:03:07.401Z,55.80
2019-05-25T06:05:36.160Z,55.80
2019-05-25T06:08:04.909Z,56.00
2019-05-25T06:10:33.678Z,56.10
2019-05-25T06:13:02.416Z,56.10
2019-05-25T06:15:31.213Z,56.20
2019-05-25T06:18:00.066Z,56.20
2019-05-25T06:20:28.811Z,56.20
2019-05-25T06:22:57.564Z,56.40
2019-05-25T06:25:26.330Z,56.40
2019-05-25T06:27:55.070Z,56.50
2019-05-25T06:30:23.867Z,56.50
2019-05-25T06:32:52.613Z,56.70
2019-05-25T06:35:21.460Z,56.80
2019-05-25T06:37:50.329Z,56.70
2019-05-25T06:40:19.172Z,56.80
2019-05-25T06:42:47.924Z,56.80
2019-05-25T06:45:16.767Z,56.80
2019-05-25T06:47:45.508Z,56.80
2019-05-25T06:50:14.276Z,56.80
2019-05-25T06:52:43.026Z,56.70
2019-05-25T06:55:11.799Z,56.20
2019-05-25T06:57:43.551Z,56.00
2019-05-25T07:00:11.187Z,55.70
2019-05-25T07:02:40.060Z,55.80
2019-05-25T07:05:08.929Z,55.80
2019-05-25T07:07:37.727Z,55.90
2019-05-25T07:10:07.367Z,55.80
2019-05-25T07:12:36.158Z,55.80
2019-05-25T07:15:05.452Z,56.00
2019-05-25T07:17:34.208Z,56.00
2019-05-25T07:20:03.107Z,56.00
2019-05-25T07:22:31.935Z,56.00
2019-05-25T07:25:00.708Z,56.20
2019-05-25T07:27:29.536Z,56.20
2019-05-25T07:29:58.303Z,56.00
2019-05-25T07:32:27.070Z,55.80
2019-05-25T07:34:56.020Z,55.90
2019-05-25T07:37:24.822Z,56.00
2019-05-25T07:39:53.672Z,56.10
2019-05-25T07:42:22.488Z,56.20
2019-05-25T07:44:51.266Z,56.10
2019-05-25T07:47:20.068Z,56.10
2019-05-25T07:49:48.835Z,56.30
2019-05-25T07:52:17.635Z,56.30
2019-05-25T07:54:46.468Z,56.40
2019-05-25T07:57:15.217Z,56.50
2019-05-25T07:59:44.024Z,56.50
2019-05-25T08:02:12.795Z,56.60
2019-05-25T08:04:41.608Z,56.40
2019-05-25T08:07:10.424Z,56.10
2019-05-25T08:09:39.287Z,56.10
2019-05-25T08:12:08.115Z,56.10
2019-05-25T08:14:36.932Z,56.30
2019-05-25T08:17:05.785Z,56.20
2019-05-25T08:19:34.533Z,56.00
2019-05-25T08:22:03.404Z,56.10
2019-05-25T08:24:32.224Z,56.20
2019-05-25T08:27:01.149Z,56.90
2019-05-25T08:29:29.910Z,56.30
2019-05-25T08:31:58.693Z,56.40
2019-05-25T08:34:27.544Z,56.40
2019-05-25T08:36:56.430Z,56.50
2019-05-25T08:39:25.236Z,56.30
2019-05-25T08:41:54.066Z,56.30
2019-05-25T08:44:22.869Z,56.20
2019-05-25T08:46:55.217Z,56.40
2019-05-25T08:49:22.268Z,56.40
2019-05-25T08:51:51.064Z,56.90
2019-05-25T08:54:19.912Z,56.80
2019-05-25T08:56:48.666Z,56.90
2019-05-25T08:59:17.447Z,56.90
2019-05-25T09:01:46.205Z,56.90
2019-05-25T09:04:15.070Z,56.90
2019-05-25T09:06:43.896Z,56.90
2019-05-25T09:09:12.728Z,56.90
2019-05-25T09:11:41.504Z,56.90
2019-05-25T09:14:10.268Z,57.00
2019-05-25T09:16:39.008Z,56.90
2019-05-25T09:19:07.769Z,56.70
2019-05-25T09:21:36.626Z,56.80
2019-05-25T09:24:05.436Z,56.80
2019-05-25T09:26:34.275Z,56.80
2019-05-25T09:29:04.810Z,56.80
2019-05-25T09:31:33.530Z,56.90
2019-05-25T09:34:02.398Z,56.90
2019-05-25T09:36:31.158Z,56.90
2019-05-25T09:38:59.915Z,57.00
2019-05-25T09:41:28.652Z,57.00
2019-05-25T09:43:57.403Z,57.10
2019-05-25T09:46:26.191Z,57.30
2019-05-25T09:48:54.944Z,57.30
2019-05-25T09:51:23.696Z,57.10
2019-05-25T09:53:52.454Z,57.20
2019-05-25T09:56:21.201Z,57.10
2019-05-25T09:58:50.016Z,57.20
2019-05-25T10:01:18.784Z,57.30
2019-05-25T10:03:47.567Z,57.40
2019-05-25T10:06:16.316Z,57.50
2019-05-25T10:08:45.072Z,57.40
2019-05-25T10:11:13.857Z,57.00
2019-05-25T10:13:42.675Z,57.20
2019-05-25T10:16:11.457Z,56.90
2019-05-25T10:18:40.195Z,57.00
2019-05-25T10:21:08.977Z,57.00
2019-05-25T10:23:37.807Z,57.20
2019-05-25T10:26:06.577Z,57.30
2019-05-25T10:28:35.421Z,57.40
2019-05-25T10:31:04.172Z,57.40
2019-05-25T10:33:33.171Z,57.40
2019-05-25T10:36:02.178Z,57.20
2019-05-25T10:38:31.033Z,57.30
2019-05-25T10:40:59.843Z,57.40
2019-05-25T10:43:28.613Z,57.40
2019-05-25T10:45:57.444Z,57.50
2019-05-25T10:48:26.203Z,57.50
2019-05-25T10:50:54.980Z,57.40
2019-05-25T10:53:23.749Z,57.60
2019-05-25T10:55:52.535Z,57.20
2019-05-25T10:58:21.384Z,56.60
2019-05-25T11:00:50.655Z,56.40
2019-05-25T11:03:19.423Z,56.50
2019-05-25T11:05:48.229Z,56.50
2019-05-25T11:08:17.040Z,55.70
2019-05-25T11:10:45.790Z,55.50
2019-05-25T11:13:14.552Z,55.90
2019-05-25T11:15:43.361Z,56.00
2019-05-25T11:18:12.265Z,56.10
2019-05-25T11:20:41.044Z,55.90
2019-05-25T11:23:09.823Z,56.00
2019-05-25T11:25:38.637Z,56.00
2019-05-25T11:28:08.485Z,55.90
2019-05-25T11:30:37.441Z,56.10
2019-05-25T11:33:06.199Z,56.30
2019-05-25T11:35:34.953Z,56.30
2019-05-25T11:38:03.719Z,56.30
2019-05-25T11:40:32.476Z,56.40
2019-05-25T11:43:01.247Z,56.40
2019-05-25T11:45:29.979Z,56.20
2019-05-25T11:47:58.725Z,55.80
2019-05-25T11:50:27.485Z,56.00
2019-05-25T11:52:56.237Z,55.70
2019-05-25T11:55:24.990Z,56.10
2019-05-25T11:57:53.735Z,56.10
2019-05-25T12:00:25.212Z,56.10
2019-05-25T12:02:53.167Z,56.00
2019-05-25T12:05:21.921Z,56.10
2019-05-25T12:07:50.667Z,56.10
2019-05-25T12:10:19.511Z,56.10
2019-05-25T12:12:48.293Z,56.10
2019-05-25T12:15:17.167Z,56.10
2019-05-25T12:17:45.914Z,56.00
2019-05-25T12:20:14.789Z,55.90
2019-05-25T12:22:43.552Z,55.90
2019-05-25T12:25:12.364Z,55.70
2019-05-25T12:27:41.108Z,56.00
2019-05-25T12:30:10.256Z,56.10
2019-05-25T12:32:39.115Z,56.20
2019-05-25T12:35:07.956Z,56.40
2019-05-25T12:37:36.792Z,56.70
2019-05-25T12:40:05.928Z,56.50
2019-05-25T12:42:34.696Z,57.20
2019-05-25T12:45:03.538Z,56.80
2019-05-25T12:47:36.356Z,56.90
2019-05-25T12:50:06.064Z,57.00
2019-05-25T12:52:37.302Z,57.50
2019-05-25T12:55:06.263Z,57.80
2019-05-25T12:57:35.707Z,57.20
2019-05-25T13:00:15.522Z,56.90
2019-05-25T13:02:37.663Z,57.00
2019-05-25T13:05:10.025Z,56.90
2019-05-25T13:07:39.100Z,56.70
2019-05-25T13:10:11.995Z,56.90
2019-05-25T13:12:40.772Z,56.90
2019-05-25T13:15:09.709Z,56.90
2019-05-25T13:17:38.562Z,56.90
2019-05-25T13:20:08.428Z,56.90
2019-05-25T13:22:37.963Z,56.90
2019-05-25T13:25:06.932Z,57.10
2019-05-25T13:27:35.896Z,57.40
2019-05-25T13:30:06.446Z,57.30
2019-05-25T13:32:35.377Z,57.30
2019-05-25T13:35:05.645Z,57.30
2019-05-25T13:37:35.137Z,57.30
2019-05-25T13:40:04.276Z,57.30
2019-05-25T13:42:33.533Z,57.40
2019-05-25T13:45:02.554Z,57.70
2019-05-25T13:47:34.276Z,57.70
2019-05-25T13:50:03.137Z,57.60
2019-05-25T13:52:32.103Z,57.30
2019-05-25T13:55:00.873Z,57.20
2019-05-25T13:57:29.624Z,57.00
2019-05-25T13:59:58.388Z,57.00
2019-05-25T14:02:27.149Z,56.70
2019-05-25T14:04:55.971Z,56.70
2019-05-25T14:07:24.825Z,56.80
2019-05-25T14:09:53.642Z,56.80
2019-05-25T14:12:22.561Z,56.80
2019-05-25T14:14:51.429Z,56.90
2019-05-25T14:17:20.258Z,56.90
2019-05-25T14:19:49.287Z,56.90
2019-05-25T14:22:18.415Z,56.90
2019-05-25T14:24:56.787Z,56.70
2019-05-25T14:27:26.723Z,56.90
2019-05-25T14:29:55.635Z,57.00
2019-05-25T14:32:24.612Z,57.00
2019-05-25T14:34:53.629Z,56.90
2019-05-25T14:37:22.864Z,57.30
2019-05-25T14:39:51.685Z,57.20
2019-05-25T14:42:20.891Z,57.20
2019-05-25T14:44:49.726Z,57.20
2019-05-25T14:47:18.497Z,57.20
2019-05-25T14:49:50.692Z,57.20
2019-05-25T14:52:19.838Z,57.20
2019-05-25T14:54:48.614Z,56.50
2019-05-25T14:57:17.545Z,56.50
2019-05-25T14:59:46.415Z,56.40
2019-05-25T15:02:15.185Z,56.40
2019-05-25T15:04:43.952Z,56.50
2019-05-25T15:07:12.824Z,56.60
2019-05-25T15:09:41.794Z,56.50
2019-05-25T15:12:10.630Z,56.50
2019-05-25T15:14:43.766Z,56.60
2019-05-25T15:17:12.813Z,56.60
2019-05-25T15:19:41.999Z,56.60
2019-05-25T15:22:11.350Z,56.80
2019-05-25T15:24:40.357Z,56.90
2019-05-25T15:27:09.124Z,56.90
2019-05-25T15:29:37.964Z,57.20
2019-05-25T15:32:19.409Z,56.90
2019-05-25T15:34:37.471Z,56.80
2019-05-25T15:37:06.390Z,56.80
2019-05-25T15:39:35.250Z,56.70
2019-05-25T15:42:04.031Z,56.70
2019-05-25T15:44:32.951Z,56.80
2019-05-25T15:47:04.855Z,56.90
2019-05-25T15:49:33.601Z,56.80
2019-05-25T15:52:02.786Z,56.80
2019-05-25T15:54:31.521Z,56.90
2019-05-25T15:57:00.294Z,56.90
2019-05-25T15:59:29.079Z,56.90
2019-05-25T16:01:58.100Z,57.20
2019-05-25T16:04:26.853Z,57.20
2019-05-25T16:06:55.782Z,57.10
2019-05-25T16:09:24.770Z,57.10
2019-05-25T16:11:53.619Z,57.20
2019-05-25T16:14:23.740Z,57.30
2019-05-25T16:16:52.566Z,57.30
2019-05-25T16:19:21.322Z,57.10
2019-05-25T16:21:50.092Z,57.10
2019-05-25T16:24:24.800Z,56.90
2019-05-25T16:26:53.566Z,57.00
2019-05-25T16:29:22.442Z,56.90
2019-05-25T16:31:51.194Z,56.60
2019-05-25T16:34:20.054Z,56.80
2019-05-25T16:36:48.898Z,56.60
2019-05-25T16:39:17.752Z,57.30
2019-05-25T16:41:46.619Z,56.50
2019-05-25T16:44:15.388Z,56.60
2019-05-25T16:46:44.254Z,56.70
2019-05-25T16:49:13.252Z,56.50
2019-05-25T16:51:42.292Z,56.50
2019-05-25T16:54:11.063Z,56.20
2019-05-25T16:56:39.812Z,56.40
2019-05-25T16:59:08.724Z,56.20
2019-05-25T17:01:47.522Z,56.20
2019-05-25T17:04:08.056Z,56.20
2019-05-25T17:06:36.798Z,56.20
2019-05-25T17:09:07.001Z,56.20
2019-05-25T17:11:35.755Z,55.90
2019-05-25T17:14:04.619Z,55.70
2019-05-25T17:16:33.460Z,55.80
2019-05-25T17:19:02.232Z,55.70
2019-05-25T17:21:31.049Z,55.80
2019-05-25T17:23:59.880Z,56.00
2019-05-25T17:26:28.912Z,56.00
2019-05-25T17:28:57.668Z,56.10
2019-05-25T17:31:26.418Z,56.10
2019-05-25T17:33:55.256Z,56.20
2019-05-25T17:36:24.101Z,56.20
2019-05-25T17:38:52.881Z,56.20
2019-05-25T17:41:21.669Z,56.30
2019-05-25T17:43:50.492Z,56.20
2019-05-25T17:46:19.258Z,56.20
2019-05-25T17:48:48.023Z,56.40
2019-05-25T17:51:16.754Z,56.40
2019-05-25T17:53:45.705Z,56.60
2019-05-25T17:56:14.473Z,56.60
2019-05-25T17:58:43.236Z,56.60
2019-05-25T18:01:12.036Z,56.50
2019-05-25T18:03:40.864Z,56.50
2019-05-25T18:06:09.619Z,56.30
2019-05-25T18:08:38.537Z,56.10
2019-05-25T18:11:07.277Z,56.20
2019-05-25T18:13:36.043Z,56.30
2019-05-25T18:16:04.804Z,56.30
2019-05-25T18:18:33.573Z,55.90
2019-05-25T18:21:22.057Z,55.90
2019-05-25T18:23:50.923Z,56.10
2019-05-25T18:26:21.025Z,56.10
2019-05-25T18:28:49.827Z,56.10
2019-05-25T18:31:18.641Z,56.10
2019-05-25T18:33:47.409Z,56.20
2019-05-25T18:36:16.427Z,56.00
2019-05-25T18:38:45.183Z,56.20
2019-05-25T18:41:13.978Z,56.20
2019-05-25T18:43:42.756Z,56.20
2019-05-25T18:46:11.493Z,56.20
2019-05-25T18:48:40.251Z,56.20
2019-05-25T18:51:09.033Z,56.30
2019-05-25T18:53:37.789Z,56.30
2019-05-25T18:56:06.554Z,56.20
2019-05-25T18:58:35.411Z,55.90
2019-05-25T19:01:04.179Z,56.10
2019-05-25T19:03:32.961Z,56.10
2019-05-25T19:06:01.841Z,56.10
2019-05-25T19:08:30.613Z,56.20
2019-05-25T19:10:59.364Z,56.20
2019-05-25T19:13:28.191Z,56.20
2019-05-25T19:15:56.967Z,56.30
2019-05-25T19:18:25.744Z,56.30
2019-05-25T19:20:54.601Z,56.30
2019-05-25T19:23:23.525Z,56.20
2019-05-25T19:25:52.382Z,56.50
2019-05-25T19:28:22.836Z,56.40
2019-05-25T19:30:51.641Z,56.40
2019-05-25T19:33:20.666Z,56.40
2019-05-25T19:35:49.526Z,56.40
2019-05-25T19:38:18.317Z,56.50
2019-05-25T19:40:47.096Z,56.50
2019-05-25T19:43:16.028Z,56.70
2019-05-25T19:45:47.382Z,56.60
2019-05-25T19:48:15.446Z,56.50
2019-05-25T19:50:44.294Z,56.40
2019-05-25T19:53:13.703Z,56.20
2019-05-25T19:55:42.913Z,56.40
2019-05-25T19:58:11.835Z,56.40
2019-05-25T20:00:40.767Z,57.00
2019-05-25T20:03:09.629Z,56.30
2019-05-25T20:05:38.424Z,56.30
2019-05-25T20:08:07.252Z,56.50
2019-05-25T20:10:36.048Z,56.50
2019-05-25T20:13:04.873Z,56.50
2019-05-25T20:15:33.653Z,56.60
2019-05-25T20:18:02.514Z,56.60
2019-05-25T20:20:31.281Z,56.50
2019-05-25T20:23:00.046Z,56.60
2019-05-25T20:25:28.907Z,56.70
2019-05-25T20:27:57.690Z,56.60
2019-05-25T20:30:26.506Z,56.60
2019-05-25T20:32:55.386Z,56.60
2019-05-25T20:35:33.027Z,56.80
2019-05-25T20:37:54.675Z,56.80
2019-05-25T20:40:23.619Z,56.60
2019-05-25T20:42:52.369Z,56.40
2019-05-25T20:45:21.160Z,56.30
2019-05-25T20:47:50.259Z,56.30
2019-05-25T20:50:19.018Z,56.50
2019-05-25T20:52:54.047Z,56.40
2019-05-25T20:55:22.815Z,56.30
2019-05-25T20:57:52.267Z,56.40
2019-05-25T21:00:24.115Z,56.40
2019-05-25T21:03:05.401Z,56.40
2019-05-25T21:05:22.201Z,56.50
2019-05-25T21:07:51.067Z,56.70
2019-05-25T21:10:19.848Z,56.50
2019-05-25T21:12:48.719Z,56.50
2019-05-25T21:15:17.480Z,56.50
2019-05-25T21:17:46.547Z,56.60
2019-05-25T21:20:15.289Z,56.60
2019-05-25T21:22:44.195Z,56.60
2019-05-25T21:25:12.987Z,56.60
2019-05-25T21:27:41.755Z,56.70
2019-05-25T21:30:10.551Z,56.60
2019-05-25T21:32:39.329Z,56.50
2019-05-25T21:35:08.395Z,56.40
2019-05-25T21:37:37.175Z,56.30
2019-05-25T21:40:06.612Z,56.40
2019-05-25T21:42:35.424Z,56.40
2019-05-25T21:45:04.435Z,56.50
2019-05-25T21:47:33.218Z,56.40
2019-05-25T21:50:01.994Z,56.40
2019-05-25T21:52:30.962Z,56.40
2019-05-25T21:54:59.919Z,56.50
2019-05-25T21:57:28.705Z,56.40
2019-05-25T21:59:57.487Z,56.40
2019-05-25T22:02:26.263Z,56.50
2019-05-25T22:04:55.112Z,56.50
2019-05-25T22:07:23.877Z,56.50
2019-05-25T22:09:52.643Z,56.40
2019-05-25T22:12:21.610Z,56.40
2019-05-25T22:14:50.411Z,56.40
2019-05-25T22:17:19.177Z,56.50
2019-05-25T22:19:48.046Z,56.70
2019-05-25T22:22:16.827Z,56.60
2019-05-25T22:24:45.706Z,56.50
2019-05-25T22:27:14.477Z,56.30
2019-05-25T22:29:43.323Z,56.20
2019-05-25T22:32:12.057Z,56.20
2019-05-25T22:34:40.823Z,56.30
2019-05-25T22:37:09.587Z,56.30
2019-05-25T22:39:38.338Z,56.20
2019-05-25T22:42:07.109Z,56.30
2019-05-25T22:44:35.939Z,56.30
2019-05-25T22:47:04.756Z,56.20
2019-05-25T22:49:33.587Z,57.00
2019-05-25T22:52:02.421Z,57.00
2019-05-25T22:54:31.183Z,56.40
2019-05-25T22:56:59.977Z,56.40
2019-05-25T22:59:28.760Z,56.30
2019-05-25T23:01:57.524Z,56.30
2019-05-25T23:04:26.371Z,56.30
2019-05-25T23:06:58.323Z,56.50
2019-05-25T23:09:25.713Z,56.50
2019-05-25T23:11:54.544Z,56.50
2019-05-25T23:14:23.465Z,56.40
2019-05-25T23:16:53.257Z,56.20
2019-05-25T23:19:22.209Z,56.20
2019-05-25T23:21:50.998Z,56.10
2019-05-25T23:24:19.754Z,56.10
2019-05-25T23:26:48.517Z,56.20
2019-05-25T23:29:17.259Z,56.10
2019-05-25T23:31:46.108Z,56.00
2019-05-25T23:34:14.843Z,56.10
2019-05-25T23:36:43.673Z,56.10
2019-05-25T23:39:12.512Z,56.10
2019-05-25T23:41:41.286Z,56.20
2019-05-25T23:44:10.053Z,56.40
2019-05-25T23:46:38.834Z,56.30
2019-05-25T23:49:07.574Z,56.30
2019-05-25T23:51:36.407Z,56.20
2019-05-25T23:54:05.323Z,56.20
2019-05-25T23:56:34.154Z,56.20
2019-05-25T23:59:02.920Z,56.20
